createdAt,value
2023-02-25T00:02:38.548Z,2.06
2023-02-25T00:09:21.020Z,2.05
2023-02-25T00:16:05.184Z,2.03
2023-02-25T00:22:47.608Z,1.97
2023-02-25T00:29:30.183Z,1.91
2023-02-25T00:36:19.008Z,1.86
2023-02-25T00:43:01.775Z,1.81
2023-02-25T00:49:49.593Z,1.78
2023-02-25T00:56:31.973Z,1.76
2023-02-25T01:03:14.392Z,1.75
2023-02-25T01:09:57.698Z,1.71
2023-02-25T01:16:40.229Z,1.67
2023-02-25T01:23:23.407Z,1.64
2023-02-25T01:30:08.519Z,1.57
2023-02-25T01:36:51.422Z,1.53
2023-02-25T01:43:36.864Z,1.51
2023-02-25T01:50:22.524Z,1.48
2023-02-25T01:57:12.129Z,1.45
2023-02-25T02:03:56.002Z,1.45
2023-02-25T02:10:38.586Z,1.39
2023-02-25T02:17:40.173Z,1.41
2023-02-25T02:24:51.636Z,1.41
2023-02-25T02:31:57.966Z,1.41
2023-02-25T02:39:06.933Z,1.42
2023-02-25T02:46:14.625Z,1.48
2023-02-25T03:00:36.722Z,1.53
2023-02-25T03:07:21.926Z,1.61
2023-02-25T03:14:07.314Z,1.63
2023-02-25T03:20:54.420Z,1.67
2023-02-25T03:27:42.172Z,1.74
2023-02-25T03:34:38.233Z,1.76
2023-02-25T03:41:25.418Z,1.79
2023-02-25T03:48:11.022Z,1.80
2023-02-25T03:54:55.938Z,1.81
2023-02-25T04:01:40.668Z,1.81
2023-02-25T04:08:23.387Z,1.82
2023-02-25T04:15:09.880Z,1.79
2023-02-25T04:21:52.475Z,1.77
2023-02-25T04:28:34.788Z,1.79
2023-02-25T04:35:20.580Z,1.79
2023-02-25T04:42:03.154Z,1.76
2023-02-25T04:48:45.510Z,1.75
2023-02-25T04:55:28.428Z,1.73
2023-02-25T05:02:10.802Z,1.70
2023-02-25T05:08:54.747Z,1.68
2023-02-25T05:15:37.083Z,1.65
2023-02-25T05:22:19.657Z,1.61
2023-02-25T05:29:02.198Z,1.58
2023-02-25T05:35:44.936Z,1.51
2023-02-25T05:42:28.856Z,1.46
2023-02-25T05:49:11.934Z,1.35
2023-02-25T05:55:54.336Z,1.28
2023-02-25T06:02:37.393Z,1.19
2023-02-25T06:09:21.539Z,1.13
2023-02-25T06:16:06.110Z,1.11
2023-02-25T06:22:48.718Z,1.11
2023-02-25T06:29:31.118Z,1.13
2023-02-25T06:36:15.746Z,1.16
2023-02-25T06:42:58.091Z,1.18
2023-02-25T06:49:40.749Z,1.18
2023-02-25T06:56:23.682Z,1.20
2023-02-25T07:10:30.508Z,1.29
2023-02-25T07:17:13.789Z,1.33
2023-02-25T07:23:58.966Z,1.37
2023-02-25T07:30:41.336Z,1.41
2023-02-25T07:37:23.618Z,1.47
2023-02-25T07:44:07.186Z,1.49
2023-02-25T07:50:49.464Z,1.49
2023-02-25T07:57:35.832Z,1.48
2023-02-25T08:04:18.776Z,1.50
2023-02-25T08:11:10.896Z,1.50
2023-02-25T08:17:55.909Z,1.63
2023-02-25T08:24:43.562Z,1.79
2023-02-25T08:32:03.391Z,2.04
2023-02-25T08:38:52.873Z,2.33
2023-02-25T08:45:40.602Z,2.52
2023-02-25T08:52:24.009Z,2.50
2023-02-25T08:59:25.200Z,2.50
2023-02-25T09:06:12.855Z,2.42
2023-02-25T09:13:10.455Z,2.41
2023-02-25T09:19:57.408Z,2.51
2023-02-25T09:26:40.142Z,2.57
2023-02-25T09:33:22.678Z,2.61
2023-02-25T09:40:09.646Z,2.56
2023-02-25T09:47:58.372Z,2.60
2023-02-25T09:54:48.554Z,2.60
2023-02-25T10:01:45.686Z,2.67
2023-02-25T10:08:54.367Z,2.75
2023-02-25T10:15:50.437Z,2.76
2023-02-25T10:22:41.123Z,2.88
2023-02-25T10:29:49.707Z,3.04
2023-02-25T10:36:46.497Z,3.10
2023-02-25T10:44:21.215Z,3.01
2023-02-25T10:51:23.708Z,3.01
2023-02-25T10:58:38.752Z,3.14
2023-02-25T11:05:33.232Z,3.17
2023-02-25T11:12:21.259Z,3.07
2023-02-25T11:19:31.699Z,2.96
2023-02-25T11:26:49.409Z,2.76
2023-02-25T11:33:36.782Z,2.57
2023-02-25T11:40:41.142Z,2.51
2023-02-25T11:47:38.416Z,2.55
2023-02-25T11:54:52.433Z,2.54
2023-02-25T12:02:16.419Z,2.44
2023-02-25T12:09:49.692Z,2.34
2023-02-25T12:17:10.400Z,2.28
2023-02-25T12:24:30.327Z,2.32
2023-02-25T12:31:54.208Z,2.31
2023-02-25T12:39:46.816Z,2.27
2023-02-25T12:47:07.760Z,2.17
2023-02-25T12:54:24.110Z,2.05
2023-02-25T13:02:15.897Z,1.92
2023-02-25T13:09:28.939Z,1.82
2023-02-25T13:17:26.044Z,1.75
2023-02-25T13:24:50.053Z,1.68
2023-02-25T13:31:42.152Z,1.57
2023-02-25T13:39:03.032Z,1.47
2023-02-25T13:46:35.819Z,1.37
2023-02-25T13:53:44.055Z,1.25
2023-02-25T14:00:59.436Z,1.11
2023-02-25T14:08:16.618Z,1.02
2023-02-25T14:15:23.705Z,0.96
2023-02-25T14:22:43.033Z,0.98
2023-02-25T14:29:59.365Z,0.94
2023-02-25T14:37:35.438Z,0.86
2023-02-25T14:44:43.720Z,0.85
2023-02-25T14:52:08.830Z,0.77
2023-02-25T14:59:06.424Z,0.70
2023-02-25T15:06:20.260Z,0.64
2023-02-25T15:13:35.646Z,0.59
2023-02-25T15:20:40.199Z,0.38
2023-02-25T15:27:37.009Z,0.18
2023-02-25T15:34:23.019Z,0.00
2023-02-25T15:41:28.028Z,-0.11
2023-02-25T15:48:10.250Z,-0.16
2023-02-25T15:54:53.016Z,-0.15
2023-02-25T16:01:42.666Z,-0.16
2023-02-25T16:08:31.421Z,-0.21
2023-02-25T16:15:42.131Z,-0.23
2023-02-25T16:22:29.828Z,-0.34
2023-02-25T16:29:43.912Z,-0.37
2023-02-25T16:36:44.707Z,-0.40
2023-02-25T16:43:33.217Z,-0.43
2023-02-25T16:50:20.027Z,-0.50
2023-02-25T16:57:07.858Z,-0.55
2023-02-25T17:03:50.300Z,-0.56
2023-02-25T17:10:50.741Z,-0.58
2023-02-25T17:17:40.533Z,-0.63
2023-02-25T17:24:29.434Z,-0.66
2023-02-25T17:31:18.209Z,-0.70
2023-02-25T17:38:00.950Z,-0.70
2023-02-25T17:44:45.210Z,-0.70
2023-02-25T17:51:34.842Z,-0.70
2023-02-25T17:58:23.802Z,-0.69
2023-02-25T18:05:22.396Z,-0.70
2023-02-25T18:12:17.387Z,-0.69
2023-02-25T18:19:00.142Z,-0.70
2023-02-25T18:25:45.951Z,-0.73
2023-02-25T18:32:28.311Z,-0.73
2023-02-25T18:39:13.279Z,-0.73
2023-02-25T18:45:55.487Z,-0.69
2023-02-25T18:52:38.934Z,-0.68
2023-02-25T18:59:21.177Z,-0.69
2023-02-25T19:06:04.463Z,-0.72
2023-02-25T19:12:50.884Z,-0.73
2023-02-25T19:19:33.173Z,-0.72
2023-02-25T19:26:16.219Z,-0.77
2023-02-25T19:33:03.534Z,-0.77
2023-02-25T19:39:47.931Z,-0.74
2023-02-25T19:46:30.305Z,-0.70
2023-02-25T19:53:12.691Z,-0.65
2023-02-25T19:59:54.984Z,-0.64
2023-02-25T20:06:38.712Z,-0.59
2023-02-25T20:13:21.298Z,-0.60
2023-02-25T20:20:04.941Z,-0.59
2023-02-25T20:26:47.188Z,-0.62
2023-02-25T20:33:30.034Z,-0.63
2023-02-25T20:40:13.014Z,-0.63
2023-02-25T20:46:55.550Z,-0.64
2023-02-25T20:53:38.345Z,-0.63
2023-02-25T21:00:21.872Z,-0.59
2023-02-25T21:07:07.123Z,-0.58
2023-02-25T21:13:53.402Z,-0.55
2023-02-25T21:20:35.747Z,-0.53
2023-02-25T21:27:18.868Z,-0.56
2023-02-25T21:34:03.039Z,-0.71
2023-02-25T21:40:45.613Z,-0.77
2023-02-25T21:47:28.111Z,-0.81
2023-02-25T21:54:10.816Z,-0.86
2023-02-25T22:00:53.218Z,-0.93
2023-02-25T22:07:36.217Z,-0.97
2023-02-25T22:14:18.478Z,-1.01
2023-02-25T22:21:22.875Z,-1.03
2023-02-25T22:28:08.873Z,-1.09
2023-02-25T22:34:51.864Z,-1.13
2023-02-25T22:41:35.333Z,-1.09
2023-02-25T22:48:17.725Z,-1.08
2023-02-25T22:55:00.045Z,-1.07
2023-02-25T23:01:42.662Z,-1.05
2023-02-25T23:08:25.326Z,-1.07
2023-02-25T23:15:09.452Z,-1.13
2023-02-25T23:21:51.779Z,-1.15
2023-02-25T23:28:35.716Z,-1.15
2023-02-25T23:35:18.584Z,-1.13
2023-02-25T23:42:01.088Z,-1.15
2023-02-25T23:48:43.366Z,-1.14
2023-02-25T23:55:26.000Z,-1.10
